Time;durP1;ratioP1;P1;durP2;ratioP2;P2;SDS_P1;SDS_P2;PMS_P1;PMS_P2;Temp;Humidity;BMP_temperature;BMP_pressure;BME280_temperature;BME280_humidity;BME280_pressure;Samples;Min_cycle;Max_cycle;Signal;HPM_P1;HPM_P2
2022/03/20 00:00:53;;;;;;;17.23;9.05;;;4.50;90.90;;;;;;5066759;28;19911;-79
2022/03/20 00:03:19;;;;;;;19.30;9.75;;;4.60;90.60;;;;;;5068144;28;20023;-78
2022/03/20 00:05:47;;;;;;;18.00;8.35;;;4.50;91.10;;;;;;5067160;28;20115;-77
2022/03/20 00:08:13;;;;;;;20.55;9.82;;;4.60;90.60;;;;;;5067214;28;20431;-78
2022/03/20 00:10:45;;;;;;;22.75;9.95;;;4.60;90.50;;;;;;5068199;28;20084;-79
2022/03/20 00:13:12;;;;;;;20.02;9.73;;;4.80;90.40;;;;;;5067403;28;20135;-78
2022/03/20 00:15:42;;;;;;;18.42;9.10;;;4.70;90.40;;;;;;5068352;28;20388;-79
2022/03/20 00:18:09;;;;;;;19.40;8.23;;;4.80;90.30;;;;;;5048427;28;20051;-77
2022/03/20 00:20:37;;;;;;;21.05;10.13;;;4.80;90.40;;;;;;5066488;28;20020;-80
2022/03/20 00:23:10;;;;;;;20.83;9.80;;;4.90;90.50;;;;;;5048993;28;20016;-78
2022/03/20 00:25:38;;;;;;;18.20;9.35;;;4.90;90.80;;;;;;5066668;28;20028;-78
2022/03/20 00:28:05;;;;;;;19.85;9.52;;;4.90;91.10;;;;;;5049410;28;20029;-79
2022/03/20 00:30:31;;;;;;;22.08;9.82;;;4.80;91.40;;;;;;5048739;28;20029;-79
2022/03/20 00:32:57;;;;;;;21.33;9.35;;;4.80;91.60;;;;;;5048173;28;20025;-79
2022/03/20 00:35:23;;;;;;;21.60;9.93;;;4.80;91.80;;;;;;5067811;28;20025;-80
2022/03/20 00:37:48;;;;;;;21.38;9.70;;;4.70;92.00;;;;;;5067299;28;20388;-79
2022/03/20 00:40:14;;;;;;;23.05;9.75;;;4.70;92.60;;;;;;5064882;28;20571;-77
2022/03/20 00:42:40;;;;;;;21.75;10.50;;;4.60;92.60;;;;;;5048213;28;20485;-77
2022/03/20 00:45:06;;;;;;;29.00;9.77;;;4.60;93.20;;;;;;5066863;28;20024;-78
2022/03/20 00:47:32;;;;;;;19.92;9.70;;;4.50;93.60;;;;;;5065878;28;20227;-78
2022/03/20 00:49:58;;;;;;;20.77;9.80;;;4.50;94.10;;;;;;5066435;28;20174;-78
2022/03/20 00:52:23;;;;;;;18.92;9.70;;;4.40;94.50;;;;;;5067054;28;20844;-79
2022/03/20 00:54:49;;;;;;;20.55;9.18;;;4.40;94.90;;;;;;5066420;28;20017;-78
2022/03/20 00:57:15;;;;;;;17.02;8.07;;;4.40;94.80;;;;;;5074221;28;20024;-78
2022/03/20 00:59:41;;;;;;;19.95;10.50;;;4.30;94.60;;;;;;5084979;28;20028;-77
2022/03/20 01:02:08;;;;;;;17.65;7.85;;;4.30;94.20;;;;;;5068136;28;20119;-80
2022/03/20 01:04:38;;;;;;;14.50;7.13;;;4.20;94.40;;;;;;5068306;28;20028;-79
2022/03/20 01:07:04;;;;;;;13.68;6.80;;;4.10;94.90;;;;;;5086717;28;20124;-76
2022/03/20 01:09:30;;;;;;;12.15;5.63;;;4.00;95.00;;;;;;5088219;28;20050;-78
2022/03/20 01:11:57;;;;;;;7.93;4.80;;;3.80;94.70;;;;;;5086939;28;20115;-79
2022/03/20 01:14:24;;;;;;;12.68;6.35;;;3.60;95.20;;;;;;5087472;28;20059;-77
2022/03/20 01:16:51;;;;;;;14.68;6.65;;;3.60;96.70;;;;;;5087938;28;20024;-78
2022/03/20 01:19:17;;;;;;;13.15;6.05;;;3.40;99.30;;;;;;5084881;28;20031;-79
2022/03/20 01:21:42;;;;;;;13.40;6.28;;;3.30;99.90;;;;;;5075394;28;20020;-77
2022/03/20 01:24:09;;;;;;;10.48;5.80;;;3.20;99.90;;;;;;5066811;28;20087;-77
2022/03/20 01:26:36;;;;;;;10.68;4.75;;;3.10;99.90;;;;;;5065074;28;20029;-81
2022/03/20 01:29:02;;;;;;;9.48;3.65;;;3.00;99.90;;;;;;5049772;28;20431;-79
2022/03/20 01:31:28;;;;;;;9.45;4.78;;;3.10;99.90;;;;;;5067336;28;20032;-78
2022/03/20 01:33:55;;;;;;;8.50;4.88;;;3.00;99.90;;;;;;5064317;28;20302;-78
2022/03/20 01:36:21;;;;;;;9.77;5.03;;;3.00;99.90;;;;;;5064000;28;20443;-79
2022/03/20 01:38:47;;;;;;;9.32;4.38;;;2.90;99.90;;;;;;5065488;28;20107;-75
2022/03/20 01:41:14;;;;;;;9.00;3.80;;;2.80;99.90;;;;;;5066081;28;20051;-76
2022/03/20 01:43:51;;;;;;;8.32;3.92;;;2.80;99.90;;;;;;5066345;28;20105;-75
2022/03/20 01:46:18;;;;;;;6.20;4.35;;;2.70;99.90;;;;;;5067275;28;20059;-76
2022/03/20 01:48:45;;;;;;;6.65;3.53;;;2.60;99.90;;;;;;5068211;28;20077;-76
2022/03/20 01:51:11;;;;;;;7.80;3.97;;;2.60;99.90;;;;;;5067113;28;20052;-76
2022/03/20 01:53:37;;;;;;;13.13;4.40;;;2.60;99.90;;;;;;5067811;28;20385;-75
2022/03/20 01:56:04;;;;;;;7.72;4.63;;;2.60;99.90;;;;;;5068778;28;20020;-76
2022/03/20 01:58:32;;;;;;;9.10;3.80;;;2.60;99.90;;;;;;5068703;28;20543;-76
2022/03/20 02:00:58;;;;;;;12.88;3.83;;;2.60;99.90;;;;;;5072151;28;20472;-75
2022/03/20 02:03:24;;;;;;;10.10;4.40;;;2.60;99.90;;;;;;5072641;28;20103;-76
2022/03/20 02:05:50;;;;;;;10.90;4.22;;;2.60;99.90;;;;;;5072693;28;20528;-76
2022/03/20 02:08:16;;;;;;;11.25;5.05;;;2.60;99.90;;;;;;5072362;28;20033;-76
2022/03/20 02:10:43;;;;;;;8.57;4.80;;;2.60;99.90;;;;;;5072448;28;20499;-76
2022/03/20 02:13:09;;;;;;;10.43;4.25;;;2.60;99.90;;;;;;5072560;28;20510;-76
2022/03/20 02:15:36;;;;;;;10.35;4.55;;;2.60;99.90;;;;;;5072472;28;20020;-75
2022/03/20 02:18:03;;;;;;;11.85;5.22;;;2.60;99.90;;;;;;5072406;28;20063;-76
2022/03/20 02:20:31;;;;;;;9.90;4.88;;;2.60;99.90;;;;;;5072729;28;20060;-76
2022/03/20 02:22:57;;;;;;;11.50;4.72;;;2.60;99.90;;;;;;5071910;28;20048;-76
2022/03/20 02:25:23;;;;;;;9.52;4.75;;;2.60;99.90;;;;;;5071981;28;20044;-76
2022/03/20 02:27:49;;;;;;;10.05;4.40;;;2.50;99.90;;;;;;5072215;28;20040;-76
2022/03/20 02:30:18;;;;;;;12.25;4.55;;;2.50;99.90;;;;;;5072194;28;20520;-75
2022/03/20 02:32:52;;;;;;;11.23;4.10;;;2.40;99.90;;;;;;5072089;28;20025;-76
2022/03/20 02:35:18;;;;;;;8.32;4.95;;;2.30;99.90;;;;;;5071900;28;20032;-75
2022/03/20 02:37:47;;;;;;;10.35;5.03;;;2.30;99.90;;;;;;5071601;28;20392;-75
2022/03/20 02:40:14;;;;;;;10.00;4.50;;;2.30;99.90;;;;;;5053903;28;20400;-75
2022/03/20 02:42:42;;;;;;;8.38;4.75;;;2.30;99.90;;;;;;5071876;28;20486;-75
2022/03/20 02:45:30;;;;;;;11.45;5.32;;;2.30;99.90;;;;;;5072217;28;20024;-75
2022/03/20 02:48:01;;;;;;;11.43;6.20;;;2.30;99.90;;;;;;5053891;28;20028;-76
2022/03/20 02:50:30;;;;;;;9.77;4.60;;;2.30;99.90;;;;;;5071943;28;20024;-76
2022/03/20 02:53:16;;;;;;;8.17;4.93;;;2.30;99.90;;;;;;5071549;28;20028;-76
2022/03/20 02:55:46;;;;;;;9.57;5.18;;;2.30;99.90;;;;;;5053190;28;20758;-76
2022/03/20 02:58:15;;;;;;;12.98;5.55;;;2.30;99.90;;;;;;5071840;28;20046;-76
2022/03/20 03:00:42;;;;;;;10.55;4.88;;;2.30;99.90;;;;;;5071592;28;20104;-75
2022/03/20 03:03:10;;;;;;;9.85;4.68;;;2.40;99.90;;;;;;5071579;28;20096;-76
2022/03/20 03:05:37;;;;;;;9.70;4.60;;;2.40;99.90;;;;;;5071734;28;20017;-76
2022/03/20 03:10:57;;;;;;;10.50;5.38;;;2.40;99.90;;;;;;5070617;28;20039;-76
2022/03/20 03:13:24;;;;;;;11.15;5.10;;;2.40;99.90;;;;;;5071222;28;20100;-76
2022/03/20 03:15:55;;;;;;;11.07;5.28;;;2.40;99.90;;;;;;5071355;28;20020;-75
2022/03/20 03:18:22;;;;;;;13.13;4.90;;;2.40;99.90;;;;;;5071286;28;20062;-76
2022/03/20 03:20:48;;;;;;;10.95;6.25;;;2.40;99.90;;;;;;5071104;28;20031;-75
2022/03/20 03:23:14;;;;;;;13.50;6.30;;;2.20;99.90;;;;;;5071254;28;20012;-76
2022/03/20 03:25:40;;;;;;;16.70;5.78;;;2.40;99.90;;;;;;5071135;28;20055;-75
2022/03/20 03:28:07;;;;;;;15.77;6.63;;;2.60;99.90;;;;;;5071263;28;20047;-75
2022/03/20 03:30:35;;;;;;;10.82;5.35;;;2.60;99.90;;;;;;5053091;28;20032;-76
2022/03/20 03:33:01;;;;;;;15.95;5.80;;;2.60;99.90;;;;;;5070915;28;20362;-76
2022/03/20 03:35:42;;;;;;;9.77;5.28;;;2.60;99.90;;;;;;5071180;28;20027;-75
2022/03/20 03:38:20;;;;;;;13.88;6.55;;;3.10;99.90;;;;;;5070693;28;20070;-76
2022/03/20 03:40:48;;;;;;;21.27;7.80;;;2.60;99.90;;;;;;5071091;28;20166;-76
2022/03/20 03:43:17;;;;;;;14.88;7.15;;;2.70;99.90;;;;;;5069443;28;20290;-74
2022/03/20 03:45:43;;;;;;;17.45;6.03;;;2.80;99.90;;;;;;5070919;28;20048;-75
2022/03/20 03:48:10;;;;;;;12.45;6.28;;;2.80;99.90;;;;;;5070692;28;20082;-75
2022/03/20 03:50:37;;;;;;;11.95;6.43;;;2.90;99.90;;;;;;5070222;28;20044;-76
2022/03/20 03:53:04;;;;;;;12.00;6.00;;;2.90;99.90;;;;;;5070137;28;20381;-76
2022/03/20 03:55:31;;;;;;;20.83;8.38;;;2.80;99.90;;;;;;5070699;28;20059;-75
2022/03/20 03:57:57;;;;;;;15.40;7.07;;;2.90;99.90;;;;;;5052599;28;20646;-75
2022/03/20 04:00:24;;;;;;;13.35;6.57;;;2.90;99.90;;;;;;5070472;28;20317;-75
2022/03/20 04:02:50;;;;;;;15.80;7.15;;;3.80;99.90;;;;;;5070584;28;20021;-75
2022/03/20 04:05:17;;;;;;;14.85;7.13;;;2.70;99.90;;;;;;5070283;28;20028;-76
2022/03/20 04:07:45;;;;;;;12.50;6.00;;;2.70;99.90;;;;;;5070270;28;20029;-75
2022/03/20 04:10:10;;;;;;;13.48;6.50;;;2.60;99.90;;;;;;5070185;28;20021;-76
2022/03/20 04:12:38;;;;;;;17.98;7.70;;;2.60;99.90;;;;;;5070121;28;20048;-75
2022/03/20 04:15:07;;;;;;;18.85;6.95;;;2.70;99.90;;;;;;5052023;28;20533;-75
2022/03/20 04:17:33;;;;;;;16.33;7.75;;;2.80;99.90;;;;;;5069982;28;20099;-76
2022/03/20 04:20:00;;;;;;;15.15;7.45;;;2.80;99.90;;;;;;5070109;28;20496;-75
2022/03/20 04:22:27;;;;;;;21.63;7.43;;;2.90;99.90;;;;;;5069786;28;20105;-76
2022/03/20 04:24:53;;;;;;;17.25;7.95;;;3.00;99.90;;;;;;5069823;28;20013;-75
2022/03/20 04:27:19;;;;;;;15.77;7.13;;;3.10;99.90;;;;;;5069928;28;20095;-76
2022/03/20 04:29:46;;;;;;;21.90;10.02;;;3.10;99.90;;;;;;5070283;28;20346;-76
2022/03/20 04:32:12;;;;;;;18.23;9.27;;;3.10;99.90;;;;;;5051762;28;20106;-75
2022/03/20 04:34:38;;;;;;;21.45;8.88;;;3.00;99.90;;;;;;5069707;28;20025;-76
2022/03/20 04:37:06;;;;;;;16.83;8.18;;;3.00;99.90;;;;;;5069762;28;20020;-76
2022/03/20 04:39:33;;;;;;;20.15;8.88;;;2.90;99.90;;;;;;5069616;28;20020;-75
2022/03/20 04:41:59;;;;;;;16.50;8.05;;;2.80;99.90;;;;;;5069612;28;20028;-76
2022/03/20 04:44:25;;;;;;;24.08;9.90;;;2.80;99.90;;;;;;5069974;28;20032;-75
2022/03/20 04:46:51;;;;;;;17.33;8.48;;;2.80;99.90;;;;;;5069531;28;20074;-75
2022/03/20 05:00:25;;;;;;;26.90;11.93;;;3.00;99.90;;;;;;5069290;28;20027;-76
2022/03/20 05:02:51;;;;;;;22.85;10.60;;;3.20;99.90;;;;;;5068837;28;20028;-76
2022/03/20 05:05:18;;;;;;;23.00;10.32;;;4.40;99.90;;;;;;5050894;28;20285;-75
2022/03/20 05:07:44;;;;;;;21.25;9.02;;;3.20;99.90;;;;;;5050720;28;20020;-75
2022/03/20 05:15:40;;;;;;;24.17;11.07;;;3.20;99.90;;;;;;5069060;28;20077;-75
2022/03/20 05:18:07;;;;;;;26.08;13.07;;;3.30;99.90;;;;;;5069179;28;20077;-76
2022/03/20 05:20:33;;;;;;;19.80;10.05;;;3.50;99.90;;;;;;5069138;28;20013;-75
2022/03/20 05:22:59;;;;;;;19.08;10.52;;;3.20;99.90;;;;;;5068867;28;20028;-75
2022/03/20 05:25:28;;;;;;;22.52;10.07;;;3.20;99.90;;;;;;5069464;28;20078;-76
2022/03/20 05:27:54;;;;;;;19.25;8.88;;;3.30;99.90;;;;;;5070328;28;20103;-75
2022/03/20 05:30:20;;;;;;;22.20;11.32;;;3.30;99.90;;;;;;5068875;28;20425;-75
2022/03/20 05:32:47;;;;;;;20.65;9.73;;;3.40;99.90;;;;;;5069014;28;20234;-75
2022/03/20 05:35:15;;;;;;;24.67;11.60;;;3.40;99.90;;;;;;5068383;28;20017;-76
2022/03/20 05:37:42;;;;;;;21.25;9.98;;;3.50;99.90;;;;;;5068828;28;20032;-76
2022/03/20 05:40:08;;;;;;;22.80;11.27;;;3.50;99.90;;;;;;5068945;28;20016;-75
2022/03/20 05:42:34;;;;;;;23.20;10.63;;;3.60;99.90;;;;;;5050831;28;20385;-75
2022/03/20 05:45:02;;;;;;;25.00;11.18;;;3.70;99.90;;;;;;5068964;28;20029;-76
2022/03/20 05:47:31;;;;;;;21.20;10.07;;;3.70;99.90;;;;;;5068911;28;20024;-76
2022/03/20 05:50:01;;;;;;;26.17;11.70;;;3.80;99.90;;;;;;5050943;28;20051;-76
2022/03/20 05:52:29;;;;;;;24.20;11.80;;;3.80;99.90;;;;;;5050143;28;20051;-75
2022/03/20 05:54:55;;;;;;;20.98;9.77;;;3.90;99.90;;;;;;5068990;28;20406;-75
2022/03/20 06:00:06;;;;;;;26.55;11.27;;;3.90;99.90;;;;;;5068796;28;20032;-75
2022/03/20 06:02:31;;;;;;;28.45;12.82;;;3.90;99.90;;;;;;5069227;28;20016;-76
2022/03/20 06:04:57;;;;;;;22.70;10.68;;;3.90;99.90;;;;;;5068617;28;20043;-75
2022/03/20 06:07:23;;;;;;;27.08;12.40;;;3.90;99.90;;;;;;5068759;28;20028;-76
2022/03/20 06:09:48;;;;;;;25.52;11.98;;;4.00;99.90;;;;;;5068354;28;20462;-75
2022/03/20 06:12:14;;;;;;;21.75;10.70;;;4.10;99.90;;;;;;5068878;28;20044;-76
2022/03/20 06:14:40;;;;;;;27.45;13.00;;;4.10;99.90;;;;;;5068666;28;20049;-75
2022/03/20 06:17:06;;;;;;;23.08;11.60;;;4.30;99.90;;;;;;5068389;28;20477;-75
2022/03/20 06:19:31;;;;;;;26.42;11.65;;;4.50;99.90;;;;;;5068550;28;20021;-76
2022/03/20 06:21:57;;;;;;;26.75;10.93;;;4.40;99.90;;;;;;5068321;28;20024;-75
2022/03/20 06:24:23;;;;;;;24.08;11.10;;;4.50;99.90;;;;;;5068422;28;20025;-75
2022/03/20 06:26:48;;;;;;;28.20;12.20;;;4.40;99.90;;;;;;5068361;28;20109;-75
2022/03/20 06:29:15;;;;;;;20.67;10.63;;;4.50;99.90;;;;;;5068852;28;20021;-75
2022/03/20 06:31:41;;;;;;;20.92;11.23;;;4.40;99.90;;;;;;5069064;28;20111;-76
2022/03/20 06:34:07;;;;;;;34.90;15.10;;;4.40;99.90;;;;;;5068575;28;20078;-75
2022/03/20 06:36:33;;;;;;;26.98;13.00;;;4.60;99.90;;;;;;5068862;28;20032;-76
2022/03/20 06:38:59;;;;;;;34.88;16.30;;;4.60;99.90;;;;;;5068650;28;20021;-75
2022/03/20 06:41:24;;;;;;;27.40;13.77;;;4.70;99.90;;;;;;5068805;28;20035;-75
2022/03/20 06:43:50;;;;;;;30.42;12.65;;;4.50;99.90;;;;;;5068892;28;20029;-75
2022/03/20 06:46:16;;;;;;;32.97;15.70;;;4.60;99.90;;;;;;5069105;28;20108;-75
2022/03/20 06:48:42;;;;;;;31.50;15.05;;;4.60;99.90;;;;;;5072302;28;20048;-76
2022/03/20 06:51:07;;;;;;;26.60;12.88;;;4.60;99.90;;;;;;5071379;28;20036;-75
2022/03/20 06:53:34;;;;;;;31.50;13.35;;;4.70;99.90;;;;;;5071579;28;20040;-75
2022/03/20 06:56:00;;;;;;;29.90;13.82;;;4.80;99.90;;;;;;5071875;28;20013;-75
2022/03/20 06:58:27;;;;;;;38.80;15.82;;;4.90;99.90;;;;;;5072116;28;20025;-75
2022/03/20 07:00:53;;;;;;;29.08;13.80;;;5.00;99.90;;;;;;5072191;28;20043;-75
2022/03/20 07:03:20;;;;;;;31.17;12.93;;;4.90;99.90;;;;;;5072203;28;20055;-76
2022/03/20 07:05:46;;;;;;;25.25;13.07;;;4.90;99.90;;;;;;5054099;28;20020;-75
2022/03/20 07:08:12;;;;;;;28.08;13.77;;;5.00;99.90;;;;;;5071783;28;20511;-75
2022/03/20 07:10:39;;;;;;;30.17;14.13;;;5.10;99.90;;;;;;5053315;28;20056;-75
2022/03/20 07:15:52;;;;;;;28.15;13.27;;;5.20;99.90;;;;;;5071818;28;20033;-76
2022/03/20 07:18:20;;;;;;;28.63;12.93;;;5.20;99.90;;;;;;5071913;28;20098;-76
2022/03/20 07:20:47;;;;;;;32.33;14.15;;;5.20;99.90;;;;;;5071752;28;20259;-76
2022/03/20 07:23:13;;;;;;;31.27;14.35;;;5.30;99.90;;;;;;5053650;28;20442;-76
2022/03/20 07:31:13;;;;;;;32.33;13.35;;;5.60;99.90;;;;;;5071138;28;20087;-76
2022/03/20 07:33:42;;;;;;;32.20;14.52;;;5.70;99.90;;;;;;5071497;28;20078;-77
2022/03/20 07:36:08;;;;;;;33.35;15.20;;;5.80;99.90;;;;;;5071235;28;20021;-76
2022/03/20 07:38:37;;;;;;;33.15;14.45;;;6.50;99.90;;;;;;5053012;28;20028;-75
2022/03/20 07:41:03;;;;;;;31.40;14.20;;;5.80;99.90;;;;;;5071203;28;20028;-75
2022/03/20 07:43:29;;;;;;;28.02;12.43;;;5.90;99.90;;;;;;5070793;28;20059;-76
2022/03/20 07:45:56;;;;;;;27.48;11.60;;;5.70;99.90;;;;;;5052708;28;20384;-76
2022/03/20 07:48:23;;;;;;;34.95;14.60;;;6.20;99.90;;;;;;5070877;28;20082;-76
2022/03/20 07:50:53;;;;;;;31.70;13.75;;;6.20;99.90;;;;;;5070768;28;20059;-76
2022/03/20 07:53:19;;;;;;;29.13;14.55;;;6.30;99.90;;;;;;5070064;28;20032;-77
2022/03/20 07:55:46;;;;;;;31.73;13.43;;;6.40;99.90;;;;;;5070614;28;20073;-76
2022/03/20 07:58:15;;;;;;;29.50;13.35;;;6.50;99.90;;;;;;5069908;28;20476;-77
2022/03/20 08:00:40;;;;;;;31.83;15.05;;;6.60;99.90;;;;;;5068530;28;20346;-77
2022/03/20 08:03:06;;;;;;;29.73;14.32;;;6.70;99.90;;;;;;5032518;28;20028;-77
2022/03/20 08:05:32;;;;;;;30.77;14.40;;;6.90;99.90;;;;;;5050273;28;20031;-77
2022/03/20 08:07:58;;;;;;;35.40;15.80;;;7.10;99.90;;;;;;5049924;28;20066;-75
2022/03/20 08:10:24;;;;;;;32.95;14.77;;;7.20;99.90;;;;;;5050517;28;20075;-76
2022/03/20 08:12:50;;;;;;;31.70;13.88;;;7.30;99.90;;;;;;5049215;28;20033;-76
2022/03/20 08:15:16;;;;;;;26.75;14.32;;;7.20;99.90;;;;;;5054411;28;20025;-76
2022/03/20 08:17:46;;;;;;;27.80;14.55;;;7.50;99.90;;;;;;5070215;28;20081;-76
2022/03/20 08:20:14;;;;;;;28.33;14.70;;;7.70;99.20;;;;;;5069739;28;20127;-76
2022/03/20 08:22:40;;;;;;;29.67;13.23;;;7.80;97.00;;;;;;5069274;28;20016;-76
2022/03/20 08:25:07;;;;;;;28.92;13.73;;;7.80;96.50;;;;;;5069502;28;20039;-76
2022/03/20 08:27:46;;;;;;;29.83;14.02;;;7.80;96.30;;;;;;5069558;28;20090;-76
2022/03/20 08:30:15;;;;;;;30.45;13.63;;;7.80;96.70;;;;;;5069344;28;20374;-76
2022/03/20 08:32:42;;;;;;;26.27;12.90;;;8.00;97.80;;;;;;5069902;28;20040;-76
2022/03/20 08:35:13;;;;;;;35.85;14.43;;;8.20;94.60;;;;;;5069712;28;20027;-76
2022/03/20 08:37:44;;;;;;;30.88;13.70;;;8.30;93.20;;;;;;5069416;28;20063;-76
2022/03/20 08:40:15;;;;;;;28.92;14.52;;;8.10;93.10;;;;;;5051705;28;20017;-76
2022/03/20 08:42:46;;;;;;;29.30;13.75;;;8.30;93.60;;;;;;5069383;28;20103;-75
2022/03/20 08:45:12;;;;;;;31.73;15.23;;;8.40;91.60;;;;;;5069644;28;20012;-75
2022/03/20 08:47:39;;;;;;;27.67;13.82;;;8.40;92.60;;;;;;5069735;28;20032;-76
2022/03/20 08:50:06;;;;;;;31.42;14.35;;;8.50;92.20;;;;;;5069368;28;20376;-76
2022/03/20 08:52:32;;;;;;;30.30;15.00;;;8.70;91.70;;;;;;5051050;28;20076;-76
2022/03/20 08:54:57;;;;;;;32.60;14.57;;;8.80;90.70;;;;;;5069270;28;20040;-76
2022/03/20 08:57:28;;;;;;;30.10;12.90;;;8.90;91.50;;;;;;5069280;28;20032;-76
2022/03/20 08:59:56;;;;;;;27.50;12.55;;;9.30;90.90;;;;;;5069324;28;20051;-76
2022/03/20 09:02:22;;;;;;;26.50;13.90;;;9.70;88.80;;;;;;5069428;28;20020;-76
2022/03/20 09:04:48;;;;;;;27.02;13.63;;;9.90;85.90;;;;;;5069416;28;20345;-76
2022/03/20 09:07:14;;;;;;;33.00;14.85;;;10.00;86.50;;;;;;5069346;28;20024;-76
2022/03/20 09:09:39;;;;;;;30.90;15.45;;;9.90;86.40;;;;;;5068591;28;20121;-77
2022/03/20 09:12:08;;;;;;;26.83;13.52;;;9.90;85.90;;;;;;5069168;28;20041;-77
2022/03/20 09:14:34;;;;;;;29.50;13.70;;;10.20;87.00;;;;;;5068100;28;20412;-76
2022/03/20 09:19:47;;;;;;;26.23;13.23;;;10.40;82.70;;;;;;5069398;28;20430;-76
2022/03/20 09:22:16;;;;;;;32.08;15.48;;;10.50;83.30;;;;;;5068928;28;20037;-76
2022/03/20 09:24:42;;;;;;;28.60;14.07;;;10.50;83.40;;;;;;5069076;28;20021;-76
2022/03/20 09:27:07;;;;;;;26.98;13.98;;;10.50;81.40;;;;;;5068949;28;20017;-77
2022/03/20 09:29:33;;;;;;;31.98;15.43;;;10.60;82.50;;;;;;5068904;28;20366;-76
2022/03/20 09:31:59;;;;;;;30.33;14.05;;;10.60;80.30;;;;;;5069165;28;20072;-76
2022/03/20 09:34:24;;;;;;;29.27;14.57;;;10.60;81.20;;;;;;5068831;28;20020;-76
2022/03/20 09:36:50;;;;;;;32.47;15.30;;;10.60;81.20;;;;;;5068622;28;20062;-76
2022/03/20 09:39:16;;;;;;;29.65;14.27;;;10.70;80.30;;;;;;5067570;28;20116;-76
2022/03/20 09:41:43;;;;;;;29.25;14.88;;;10.80;80.00;;;;;;5069055;28;20031;-77
2022/03/20 09:44:10;;;;;;;25.55;13.40;;;10.90;80.10;;;;;;5068966;28;20095;-76
2022/03/20 09:46:36;;;;;;;26.48;13.98;;;11.00;79.10;;;;;;5069353;28;20031;-76
2022/03/20 09:49:04;;;;;;;25.70;14.05;;;11.30;80.20;;;;;;5069076;28;20025;-76
2022/03/20 09:51:29;;;;;;;27.30;14.02;;;11.30;78.10;;;;;;5050402;28;20531;-77
2022/03/20 09:53:55;;;;;;;25.08;13.18;;;11.40;76.90;;;;;;5068712;28;20043;-76
2022/03/20 09:56:21;;;;;;;26.10;13.95;;;11.50;76.50;;;;;;5068880;28;20024;-77
2022/03/20 09:58:47;;;;;;;27.08;13.52;;;11.70;76.30;;;;;;5068841;28;20017;-76
2022/03/20 10:01:13;;;;;;;23.27;11.95;;;11.80;75.00;;;;;;5068900;28;20020;-76
2022/03/20 10:03:39;;;;;;;24.23;11.77;;;11.80;73.90;;;;;;5068922;28;20481;-76
2022/03/20 10:06:09;;;;;;;26.27;13.00;;;11.80;73.30;;;;;;5068761;28;20027;-77
2022/03/20 10:08:35;;;;;;;29.10;12.63;;;11.80;73.50;;;;;;5068677;28;20035;-76
2022/03/20 10:11:15;;;;;;;23.80;10.90;;;11.80;73.80;;;;;;5068887;28;20017;-76
2022/03/20 10:14:16;;;;;;;26.17;13.63;;;12.00;74.00;;;;;;5067076;28;20101;-77
2022/03/20 10:16:44;;;;;;;28.77;13.55;;;12.10;72.40;;;;;;5068599;28;20028;-76
2022/03/20 10:19:22;;;;;;;24.75;11.60;;;12.30;73.00;;;;;;5067332;28;20070;-77
2022/03/20 10:21:52;;;;;;;28.25;12.77;;;12.40;71.30;;;;;;5071520;28;20051;-77
2022/03/20 10:24:20;;;;;;;27.23;11.80;;;12.60;71.60;;;;;;5072582;28;20471;-77
2022/03/20 10:26:52;;;;;;;24.90;11.40;;;12.80;70.90;;;;;;5072640;28;20396;-76
2022/03/20 10:29:18;;;;;;;23.38;12.35;;;12.90;70.00;;;;;;5072203;28;20254;-77
2022/03/20 10:31:53;;;;;;;24.42;12.23;;;13.20;70.10;;;;;;5074723;28;20097;-77
2022/03/20 10:34:19;;;;;;;25.35;11.90;;;13.30;68.20;;;;;;5076696;28;20154;-77
2022/03/20 10:36:46;;;;;;;27.13;12.80;;;13.20;68.20;;;;;;5072980;28;20028;-76
2022/03/20 10:39:19;;;;;;;25.67;13.20;;;13.30;68.50;;;;;;5072083;28;20049;-77
2022/03/20 10:41:52;;;;;;;27.83;13.15;;;13.30;67.00;;;;;;5072551;28;20349;-77
2022/03/20 10:44:25;;;;;;;22.77;11.68;;;13.40;66.50;;;;;;5072323;28;20025;-77
2022/03/20 10:47:09;;;;;;;21.73;11.98;;;13.40;66.50;;;;;;5071751;28;20029;-77
2022/03/20 10:49:36;;;;;;;23.92;13.10;;;13.50;67.90;;;;;;5071949;28;20099;-77
2022/03/20 10:52:03;;;;;;;19.27;10.55;;;13.60;65.50;;;;;;5071230;28;20566;-77
2022/03/20 10:54:49;;;;;;;20.48;11.02;;;13.80;66.20;;;;;;5071839;28;20107;-77
2022/03/20 10:57:15;;;;;;;22.38;10.30;;;14.00;64.80;;;;;;5071634;28;20052;-76
2022/03/20 10:59:43;;;;;;;21.77;11.23;;;14.10;64.20;;;;;;5071775;28;20519;-77
2022/03/20 11:02:23;;;;;;;19.05;11.30;;;14.10;62.70;;;;;;5072281;28;20085;-77
2022/03/20 11:04:50;;;;;;;22.80;11.50;;;14.20;64.10;;;;;;5072072;28;20058;-77
2022/03/20 11:07:19;;;;;;;25.52;11.20;;;14.30;62.60;;;;;;5071241;28;20362;-77
2022/03/20 11:09:51;;;;;;;21.08;10.90;;;14.40;62.30;;;;;;5071755;28;20028;-77
2022/03/20 11:12:27;;;;;;;18.95;10.52;;;14.50;62.60;;;;;;5071441;28;20032;-77
2022/03/20 11:14:59;;;;;;;21.23;10.50;;;14.60;62.60;;;;;;5071612;28;20028;-77
2022/03/20 11:17:34;;;;;;;33.97;11.52;;;14.60;61.50;;;;;;5071408;28;20020;-77
2022/03/20 11:20:02;;;;;;;21.05;11.25;;;14.70;62.70;;;;;;5071377;28;20358;-77
2022/03/20 11:22:30;;;;;;;23.58;11.40;;;14.90;62.10;;;;;;5070965;28;20025;-76
2022/03/20 11:24:59;;;;;;;19.67;10.63;;;14.90;60.40;;;;;;5071394;28;20038;-77
2022/03/20 11:27:30;;;;;;;19.00;9.98;;;14.90;60.50;;;;;;5071413;28;20024;-77
2022/03/20 11:30:07;;;;;;;17.23;8.63;;;14.80;60.30;;;;;;5071532;28;20020;-77
2022/03/20 11:32:33;;;;;;;19.02;8.88;;;15.10;60.30;;;;;;5070199;28;20861;-77
2022/03/20 11:35:00;;;;;;;16.92;10.60;;;15.30;59.90;;;;;;5071384;28;20067;-76
2022/03/20 11:37:47;;;;;;;22.45;10.55;;;15.30;58.50;;;;;;5052767;28;20021;-77
2022/03/20 11:40:17;;;;;;;22.35;8.98;;;15.40;59.10;;;;;;5070998;28;20016;-77
2022/03/20 11:42:43;;;;;;;18.00;8.85;;;15.40;58.50;;;;;;5070785;28;20028;-76
2022/03/20 11:45:18;;;;;;;19.02;8.07;;;15.30;59.00;;;;;;5070820;28;20021;-77
2022/03/20 11:48:05;;;;;;;21.45;10.45;;;15.50;57.00;;;;;;5070755;28;20471;-77
2022/03/20 11:50:42;;;;;;;15.23;8.43;;;15.50;57.20;;;;;;5051508;28;20035;-77
2022/03/20 11:53:09;;;;;;;16.48;8.20;;;15.60;56.70;;;;;;5070351;28;20032;-77
2022/03/20 11:55:40;;;;;;;15.82;8.27;;;15.70;56.00;;;;;;5052669;28;20031;-77
2022/03/20 11:58:21;;;;;;;16.90;8.80;;;15.90;55.80;;;;;;5070597;28;20035;-77
2022/03/20 12:01:04;;;;;;;14.52;8.15;;;15.80;56.60;;;;;;5052557;28;20206;-77
2022/03/20 12:03:44;;;;;;;17.63;8.75;;;15.90;55.40;;;;;;5070220;28;20016;-76
2022/03/20 12:06:30;;;;;;;15.30;8.77;;;16.00;56.00;;;;;;5070197;28;20025;-77
2022/03/20 12:09:16;;;;;;;16.20;8.63;;;16.20;55.00;;;;;;5070339;28;20499;-77
2022/03/20 12:12:16;;;;;;;14.02;7.78;;;16.50;54.60;;;;;;5070315;28;20061;-77
2022/03/20 12:14:48;;;;;;;17.55;8.65;;;16.60;54.30;;;;;;5052228;28;20152;-77
2022/03/20 12:17:14;;;;;;;15.40;8.82;;;17.00;53.20;;;;;;5070176;28;20020;-76
2022/03/20 12:19:44;;;;;;;13.00;7.82;;;17.30;53.30;;;;;;5069970;28;20035;-76
2022/03/20 12:22:30;;;;;;;15.93;8.45;;;17.50;52.60;;;;;;5069643;28;20291;-77
2022/03/20 12:25:02;;;;;;;14.05;7.75;;;17.50;51.50;;;;;;5068556;28;20270;-77
2022/03/20 12:27:29;;;;;;;16.02;7.88;;;17.80;51.50;;;;;;5070103;28;20021;-77
2022/03/20 12:30:16;;;;;;;18.65;8.98;;;17.80;50.40;;;;;;5051875;28;20119;-77
2022/03/20 12:32:47;;;;;;;14.02;8.05;;;18.10;51.10;;;;;;5069688;28;20752;-77
2022/03/20 12:35:18;;;;;;;12.40;6.50;;;17.80;48.60;;;;;;5070205;28;20170;-77
2022/03/20 12:37:44;;;;;;;12.82;6.40;;;18.10;48.30;;;;;;5069714;28;20063;-77
2022/03/20 12:40:25;;;;;;;16.02;7.68;;;18.70;48.70;;;;;;5069576;28;20044;-77
2022/03/20 12:43:10;;;;;;;11.90;6.85;;;18.60;48.70;;;;;;5069703;28;20048;-77
2022/03/20 12:45:45;;;;;;;15.98;7.93;;;18.90;49.30;;;;;;5058209;28;20024;-78
2022/03/20 12:48:17;;;;;;;12.25;7.13;;;19.30;48.30;;;;;;5069815;28;20135;-78
2022/03/20 12:51:09;;;;;;;13.98;7.57;;;18.80;48.40;;;;;;5069251;28;20036;-78
2022/03/20 12:53:44;;;;;;;13.77;6.57;;;19.40;48.70;;;;;;5059388;28;20488;-78
2022/03/20 12:58:45;;;;;;;12.50;6.78;;;19.40;46.20;;;;;;5069642;28;20489;-78
2022/03/20 13:01:11;;;;;;;18.15;6.03;;;19.70;46.40;;;;;;5069431;28;20048;-78
2022/03/20 13:03:37;;;;;;;11.15;6.57;;;20.40;46.40;;;;;;5054521;28;20044;-77
2022/03/20 13:06:04;;;;;;;12.48;6.57;;;20.00;45.50;;;;;;5048006;28;20106;-77
2022/03/20 13:08:31;;;;;;;15.55;6.53;;;20.70;46.60;;;;;;5049165;28;20021;-77
2022/03/20 13:11:04;;;;;;;12.38;5.82;;;21.10;45.70;;;;;;5048993;28;20070;-76
2022/03/20 13:13:34;;;;;;;12.45;7.40;;;20.60;43.20;;;;;;5049237;28;20060;-77
2022/03/20 13:16:01;;;;;;;9.77;5.72;;;19.70;44.60;;;;;;5049012;28;20195;-78
2022/03/20 13:18:30;;;;;;;10.93;6.10;;;20.10;45.00;;;;;;5031045;28;20036;-79
2022/03/20 13:21:07;;;;;;;12.30;5.60;;;20.70;45.20;;;;;;5046037;28;20017;-76
2022/03/20 13:23:34;;;;;;;10.98;5.28;;;21.60;44.50;;;;;;5049674;28;20029;-78